Data for 01/05/2005

Time Sea-Level Adjusted Pressure Absolute Pressure Temperature Relative Humidity Dew Point   
(mb) (inHg) (mb) (inHg) (C) (F) (%) (C) (F)
17:35 1016 30 846 24.98 -15.1 4.8 73 -18.9 -2
17:40 1016 30 846 24.98 -15.1 4.8 73 -18.9 -1.9
17:45 1016 30 846 24.98 -15.3 4.4 76 -18.7 -1.7
17:50 1016 30 846 24.98 -15.3 4.5 76 -18.7 -1.6
17:55 1016 30 846 24.98 -15.3 4.5 75 -18.8 -1.9
18:00 1016 30 846 24.98 -15.3 4.4 75 -18.8 -1.9
18:05 1016 30 845 24.95 -15.5 4.1 76 -18.8 -1.8
18:10 1016 30 845 24.95 -15.8 3.5 77 -19 -2.2
18:15 1016 30 845 24.95 -16 3.3 78 -19 -2.2
18:20 1016 30 845 24.95 -16.1 3 79 -18.9 -2.1
18:25 1016 30 845 24.95 -16.2 2.9 79 -18.9 -2.1
18:30 1016 30 845 24.95 -16.1 3.1 78 -19 -2.3
18:35 1016 30 845 24.95 -16.2 2.9 79 -19 -2.1
18:40 1016 30 845 24.95 -16.3 2.6 78 -19.2 -2.6
18:45 1016 30 845 24.95 -16.4 2.5 79 -19.2 -2.5
18:50 1016 30 845 24.95 -16.4 2.5 78 -19.3 -2.8
18:55 1016 30 845 24.95 -16.4 2.6 77 -19.5 -3.1
19:00 1016 30 845 24.95 -16.4 2.5 77 -19.5 -3.1
19:05 1016 30 845 24.95 -16.7 1.9 79 -19.5 -3.1
19:10 1015 29.97 845 24.95 -16.9 1.6 80 -19.6 -3.4
19:15 1015 29.97 845 24.95 -17 1.5 80 -19.7 -3.5
19:20 1015 29.97 845 24.95 -17.1 1.3 80 -19.8 -3.6
19:25 1015 29.97 844 24.92 -17.2 1.1 80 -19.8 -3.7
19:30 1015 29.97 844 24.92 -17.2 1.1 79 -19.9 -3.8
19:35 1015 29.97 844 24.92 -17.2 1 80 -19.9 -3.8
19:40 1015 29.97 844 24.92 -17.3 0.9 80 -20 -4
19:45 1015 29.97 844 24.92 -17.3 0.9 80 -20 -3.9
19:50 1015 29.97 844 24.92 -17.3 0.9 80 -20 -4.1
19:55 1015 29.97 844 24.92 -17.4 0.7 80 -20.1 -4.2
20:00 1015 29.97 844 24.92 -17.5 0.5 80 -20.1 -4.2
20:05 1015 29.97 844 24.92 -17.6 0.4 81 -20.1 -4.3
20:10 1015 29.97 844 24.92 -17.6 0.3 81 -20.1 -4.3
20:15 1015 29.97 844 24.92 -17.7 0.2 81 -20.2 -4.4
20:20 1015 29.97 844 24.92 -17.6 0.3 80 -20.3 -4.5
20:25 1015 29.97 844 24.92 -17.6 0.3 80 -20.3 -4.6
20:30 1015 29.97 844 24.92 -17.7 0.2 81 -20.2 -4.4
20:35 1015 29.97 844 24.92 -17.7 0.2 81 -20.2 -4.4
20:40 1014 29.94 844 24.92 -17.5 0.4 81 -20.1 -4.2
20:45 1014 29.94 844 24.92 -17.4 0.7 80 -20 -4
20:50 1014 29.94 844 24.92 -17.3 0.8 81 -19.9 -3.9
20:55 1014 29.94 844 24.92 -17.2 1 80 -19.9 -3.8
21:00 1014 29.94 844 24.92 -17.2 1.1 79 -19.9 -3.9
21:05 1014 29.94 844 24.92 -17.2 1.1 80 -19.9 -3.8
21:10 1014 29.94 844 24.92 -17.3 0.9 81 -19.9 -3.8
21:15 1014 29.94 844 24.92 -17.5 0.6 81 -20 -4
21:20 1014 29.94 844 24.92 -17.4 0.7 81 -20 -3.9
21:25 1014 29.94 844 24.92 -17.2 1 80 -19.8 -3.7
21:30 1014 29.94 844 24.92 -17.2 1.1 80 -19.8 -3.7
21:35 1014 29.94 843 24.89 -17.6 0.3 81 -20.1 -4.1
21:40 1014 29.94 843 24.89 -18.1 -0.6 82 -20.5 -4.8
21:45 1014 29.94 843 24.89 -18.4 -1 82 -20.7 -5.3
21:50 1014 29.94 843 24.89 -18.4 -1.2 83 -20.6 -5.1
21:55 1014 29.94 843 24.89 -18.3 -0.9 82 -20.7 -5.2
22:00 1014 29.94 843 24.89 -18.2 -0.7 82 -20.5 -4.9
22:05 1014 29.94 843 24.89 -18 -0.5 82 -20.4 -4.7
22:10 1014 29.94 843 24.89 -17.8 -0 82 -20.2 -4.4
22:15 1014 29.94 843 24.89 -17.6 0.2 80 -20.3 -4.6
22:20 1014 29.94 843 24.89 -17.7 0.1 80 -20.4 -4.7
22:25 1014 29.94 843 24.89 -18 -0.4 82 -20.4 -4.7
22:30 1013 29.91 843 24.89 -17.8 -0.1 81 -20.4 -4.7
22:35 1013 29.91 843 24.89 -17.9 -0.2 81 -20.5 -4.8
22:40 1013 29.91 843 24.89 -18 -0.3 82 -20.4 -4.7
22:45 1013 29.91 843 24.89 -17.9 -0.2 81 -20.3 -4.6
22:50 1013 29.91 843 24.89 -17.7 0.2 80 -20.4 -4.6
22:55 1013 29.91 843 24.89 -17.7 0.2 80 -20.4 -4.7
23:00 1013 29.91 843 24.89 -17.7 0.2 80 -20.4 -4.7
23:05 1013 29.91 843 24.89 -17.7 0.2 78 -20.6 -5.1
23:10 1013 29.91 843 24.89 -17.7 0.2 80 -20.3 -4.6
23:15 1013 29.91 843 24.89 -17.4 0.8 79 -20.2 -4.3
23:20 1013 29.91 843 24.89 -17.2 1.1 78 -20.1 -4.2
23:25 1013 29.91 843 24.89 -17.3 0.9 80 -19.9 -3.9
23:30 1013 29.91 842 24.86 -17.1 1.2 77 -20.3 -4.5
23:35 1013 29.91 842 24.86 -18 -0.4 81 -20.5 -4.9
23:40 1013 29.91 842 24.86 -18.1 -0.6 82 -20.5 -4.9
23:45 1013 29.91 842 24.86 -18 -0.4 84 -20.1 -4.2
23:50 1013 29.91 842 24.86 -17.7 0.2 84 -19.7 -3.5
23:55 1013 29.91 842 24.86 -17.3 0.9 84 -19.4 -3
24:00 1013 29.91 842 24.86 -17.1 1.2 81 -19.7 -3.4